Time;durP1;ratioP1;P1;durP2;ratioP2;P2;SDS_P1;SDS_P2;PMS_P1;PMS_P2;Temp;Humidity;BMP_temperature;BMP_pressure;BME280_temperature;BME280_humidity;BME280_pressure;Samples;Min_cycle;Max_cycle;Signal;HPM_P1;HPM_P2
2022/06/10 00:01:36;;;;;;;6.20;4.00;;;;;;;16.52;74.13;100835.44;5012811;28;20046;-73
2022/06/10 00:04:01;;;;;;;10.05;5.55;;;;;;;16.44;74.02;100835.66;5013086;28;20037;-73
2022/06/10 00:06:27;;;;;;;12.70;4.35;;;;;;;16.35;74.02;100843.88;5013118;28;20091;-73
2022/06/10 00:08:52;;;;;;;8.25;4.22;;;;;;;16.24;74.20;100837.94;5013139;28;20492;-73
2022/06/10 00:11:17;;;;;;;12.02;4.82;;;;;;;16.15;74.47;100847.03;5012566;28;20052;-73
2022/06/10 00:13:45;;;;;;;9.95;4.75;;;;;;;16.05;74.86;100859.69;5013035;28;20041;-74
2022/06/10 00:16:11;;;;;;;15.88;5.22;;;;;;;15.98;75.09;100863.38;5009437;28;20045;-74
2022/06/10 00:18:37;;;;;;;52.08;7.57;;;;;;;15.89;75.40;100868.94;5011865;28;20029;-73
2022/06/10 00:21:06;;;;;;;10.95;4.70;;;;;;;15.78;75.69;100872.72;5012210;28;20034;-73
2022/06/10 00:23:32;;;;;;;8.43;4.68;;;;;;;15.71;76.16;100875.53;5012952;28;20045;-73
2022/06/10 00:25:57;;;;;;;7.50;4.38;;;;;;;15.65;76.16;100876.50;5012849;28;20099;-74
2022/06/10 00:28:23;;;;;;;6.82;4.68;;;;;;;15.56;76.57;100874.03;5012869;28;20053;-74
2022/06/10 00:30:49;;;;;;;6.72;4.55;;;;;;;15.50;76.95;100882.16;5012845;28;20052;-73
2022/06/10 00:33:15;;;;;;;7.45;4.68;;;;;;;15.42;76.99;100882.31;5012543;28;20485;-73
2022/06/10 00:35:41;;;;;;;6.85;4.65;;;;;;;15.33;77.62;100883.38;5012366;28;20045;-73
2022/06/10 00:38:07;;;;;;;9.35;4.63;;;;;;;15.25;77.76;100900.41;5012543;28;20029;-73
2022/06/10 00:40:37;;;;;;;5.90;3.92;;;;;;;15.22;77.99;100904.00;5012788;28;20048;-73
2022/06/10 00:43:03;;;;;;;10.15;4.70;;;;;;;15.15;78.71;100904.16;5009118;28;20374;-73
2022/06/10 00:45:54;;;;;;;6.78;5.00;;;;;;;15.09;78.60;100905.13;5012577;28;20572;-73
2022/06/10 00:48:33;;;;;;;6.80;5.03;;;;;;;15.04;79.04;100901.69;5010060;28;20069;-73
2022/06/10 00:51:03;;;;;;;8.10;4.88;;;;;;;14.98;79.22;100904.44;5009024;28;20030;-73
2022/06/10 00:53:33;;;;;;;7.30;4.80;;;;;;;14.93;79.20;100906.31;5012475;28;20034;-73
2022/06/10 00:56:00;;;;;;;5.80;4.93;;;;;;;14.84;79.89;100913.53;5012464;28;20037;-73
2022/06/10 00:58:37;;;;;;;6.55;4.47;;;;;;;14.74;80.20;100917.25;5011896;28;20038;-73
2022/06/10 01:01:03;;;;;;;5.00;4.50;;;;;;;14.71;80.53;100911.13;5009257;28;20034;-73
2022/06/10 01:03:29;;;;;;;5.85;4.60;;;;;;;14.67;80.88;100910.28;5012351;28;20500;-73
2022/06/10 01:05:55;;;;;;;6.78;5.35;;;;;;;14.59;81.02;100912.22;5011890;28;20125;-73
2022/06/10 01:08:23;;;;;;;8.48;5.03;;;;;;;14.54;81.69;100920.28;5012090;28;20133;-73
2022/06/10 01:11:13;;;;;;;6.18;4.90;;;;;;;14.46;82.28;100920.38;5012176;28;20124;-73
2022/06/10 01:13:59;;;;;;;7.90;5.75;;;;;;;14.41;81.93;100924.88;5008869;28;20042;-73
2022/06/10 01:16:33;;;;;;;9.40;5.43;;;;;;;14.37;83.05;100930.25;5007878;28;20528;-72
2022/06/10 01:19:43;;;;;;;7.05;5.10;;;;;;;14.33;82.90;100937.38;5011964;28;20041;-73
2022/06/10 01:22:33;;;;;;;7.55;5.18;;;;;;;14.26;82.82;100935.72;4993017;28;20057;-73
2022/06/10 01:25:28;;;;;;;6.60;5.68;;;;;;;14.19;83.61;100942.88;5009246;28;20041;-73
2022/06/10 01:28:24;;;;;;;8.25;5.43;;;;;;;14.10;83.99;100940.38;5009774;28;20558;-73
2022/06/10 01:31:09;;;;;;;9.52;5.57;;;;;;;14.05;84.38;100946.66;5009976;28;20045;-73
2022/06/10 01:34:10;;;;;;;8.63;6.13;;;;;;;14.00;84.84;100950.22;5010171;28;20048;-73
2022/06/10 01:36:38;;;;;;;10.77;6.50;;;;;;;13.92;84.70;100949.47;5011342;28;20161;-73
2022/06/10 01:39:46;;;;;;;7.45;5.53;;;;;;;13.90;84.85;100951.25;5011596;28;20488;-72
2022/06/10 01:42:32;;;;;;;7.95;5.53;;;;;;;13.80;85.91;100957.56;5010636;28;20038;-73
2022/06/10 01:45:16;;;;;;;9.00;6.13;;;;;;;13.75;86.08;100964.69;5011544;28;20120;-74
2022/06/10 01:47:44;;;;;;;8.43;6.97;;;;;;;13.70;86.41;100963.88;5009955;28;20105;-73
2022/06/10 01:50:14;;;;;;;9.27;6.28;;;;;;;13.68;87.31;100973.66;5011078;28;20041;-73
2022/06/10 01:52:48;;;;;;;7.50;5.90;;;;;;;13.66;86.79;100971.00;5007381;28;20045;-73
2022/06/10 01:55:30;;;;;;;8.70;6.13;;;;;;;13.66;86.69;100970.13;5010780;28;20497;-73
2022/06/10 01:58:07;;;;;;;7.60;5.22;;;;;;;13.65;86.82;100977.22;5008895;28;20042;-73
2022/06/10 02:00:36;;;;;;;10.55;6.18;;;;;;;13.62;87.18;100979.00;5011498;28;20120;-73
2022/06/10 02:03:13;;;;;;;6.72;5.13;;;;;;;13.61;87.93;100982.56;5010799;28;20073;-73
2022/06/10 02:05:52;;;;;;;8.90;6.50;;;;;;;13.58;87.83;100979.06;5011002;28;20084;-73
2022/06/10 02:08:41;;;;;;;10.95;6.38;;;;;;;13.56;87.85;100980.84;5008868;28;20675;-73
2022/06/10 02:11:15;;;;;;;6.63;5.82;;;;;;;13.55;87.26;100984.41;5010417;28;20029;-73
2022/06/10 02:13:46;;;;;;;8.98;6.32;;;;;;;13.53;87.31;100990.59;5011197;28;20176;-73
2022/06/10 02:16:16;;;;;;;6.53;5.93;;;;;;;13.48;87.50;100990.66;5008049;28;20092;-73
2022/06/10 02:19:03;;;;;;;7.05;5.40;;;;;;;13.43;87.95;100988.94;5011206;28;20046;-73
2022/06/10 02:21:38;;;;;;;10.63;6.05;;;;;;;13.38;88.25;100992.50;5007976;28;20056;-73
2022/06/10 02:24:14;;;;;;;8.57;5.78;;;;;;;13.31;89.12;100992.63;5011184;28;20501;-73
2022/06/10 02:26:40;;;;;;;9.27;7.13;;;;;;;13.23;89.71;100991.75;5012231;28;20037;-73
2022/06/10 02:29:17;;;;;;;8.73;6.25;;;;;;;13.25;89.54;101005.88;5014769;28;20034;-73
2022/06/10 02:31:47;;;;;;;8.95;6.35;;;;;;;13.25;89.42;101003.22;5011332;28;20045;-73
2022/06/10 02:34:13;;;;;;;10.93;7.70;;;;;;;13.19;89.85;101005.94;5015222;28;20033;-73
2022/06/10 02:37:03;;;;;;;13.32;8.15;;;;;;;13.19;89.71;101006.81;5014668;28;20038;-73
2022/06/10 02:39:46;;;;;;;9.82;7.47;;;;;;;13.16;90.09;101020.09;5013706;28;20029;-73
2022/06/10 02:42:21;;;;;;;11.27;8.05;;;;;;;13.14;90.38;101027.19;5012156;28;20045;-73
2022/06/10 02:45:20;;;;;;;10.52;7.50;;;;;;;13.15;89.97;101031.59;5014889;28;20038;-73
2022/06/10 02:48:24;;;;;;;10.98;7.82;;;;;;;13.10;90.32;101036.06;5012073;28;20120;-73
2022/06/10 02:50:50;;;;;;;11.82;10.35;;;;;;;13.09;90.60;101037.81;5004773;28;20056;-72
2022/06/10 02:53:15;;;;;;;12.27;8.65;;;;;;;13.08;90.49;101041.38;5014286;28;20046;-73
2022/06/10 02:55:41;;;;;;;9.88;7.50;;;;;;;13.07;90.76;101046.66;5014386;28;20056;-73
2022/06/10 03:01:12;;;;;;;11.77;9.00;;;;;;;12.92;91.33;101050.34;5013479;28;20030;-74
2022/06/10 03:03:46;;;;;;;11.32;9.80;;;;;;;12.94;91.57;101053.84;5010859;28;20057;-73
2022/06/10 03:06:28;;;;;;;9.18;7.18;;;;;;;12.89;91.23;101061.84;5015859;28;20029;-73
2022/06/10 03:09:11;;;;;;;8.33;7.40;;;;;;;12.87;91.57;101068.03;5013605;28;20030;-73
2022/06/10 03:12:03;;;;;;;9.88;7.05;;;;;;;12.81;92.13;101073.34;5013776;28;20076;-73
2022/06/10 03:14:56;;;;;;;9.73;8.00;;;;;;;12.81;91.46;101076.91;5010633;28;20409;-73
2022/06/10 03:17:48;;;;;;;9.57;6.57;;;;;;;12.85;91.50;101080.41;5011211;28;20373;-73
2022/06/10 03:20:27;;;;;;;8.07;6.65;;;;;;;12.85;91.12;101080.41;5011704;28;20046;-73
2022/06/10 03:23:40;;;;;;;8.80;7.20;;;;;;;12.88;91.70;101083.03;5013396;28;20116;-73
2022/06/10 03:26:32;;;;;;;10.35;8.70;;;;;;;12.89;91.75;101079.47;4960218;28;20054;-73
2022/06/10 03:29:05;;;;;;;11.07;7.97;;;;;;;12.90;91.53;101081.25;5013032;28;20500;-73
2022/06/10 03:31:51;;;;;;;8.27;6.70;;;;;;;12.93;91.78;101095.34;5018620;28;20377;-73
2022/06/10 03:34:33;;;;;;;8.20;6.40;;;;;;;12.94;90.90;101091.84;5010793;28;20042;-73
2022/06/10 03:37:01;;;;;;;9.18;6.10;;;;;;;12.97;90.55;101093.56;5012451;28;20045;-73
2022/06/10 03:39:27;;;;;;;9.38;6.32;;;;;;;13.02;90.51;101097.06;5013220;28;20046;-73
2022/06/10 03:42:01;;;;;;;11.07;6.60;;;;;;;13.09;90.88;101100.53;5020757;28;20113;-73
2022/06/10 03:44:28;;;;;;;8.95;6.32;;;;;;;13.13;90.26;101103.16;5013373;28;20044;-73
2022/06/10 03:46:56;;;;;;;8.48;6.85;;;;;;;13.19;89.94;101102.25;5013704;28;20034;-73
2022/06/10 03:49:29;;;;;;;8.45;6.65;;;;;;;13.23;89.68;101104.00;5013289;28;20038;-73
2022/06/10 03:51:55;;;;;;;8.10;5.80;;;;;;;13.27;89.29;101104.88;5012967;28;20033;-73
2022/06/10 03:54:20;;;;;;;12.13;6.80;;;;;;;13.34;89.50;101112.75;5013598;28;20042;-73
2022/06/10 03:56:46;;;;;;;8.48;6.50;;;;;;;13.41;88.82;101107.38;5013755;28;20096;-73
2022/06/10 03:59:12;;;;;;;9.20;6.10;;;;;;;13.48;88.55;101109.97;5012901;28;20049;-73
2022/06/10 04:01:38;;;;;;;7.05;5.78;;;;;;;13.52;88.04;101108.19;5012644;28;20033;-73
2022/06/10 04:04:04;;;;;;;7.15;5.68;;;;;;;13.55;87.81;101118.78;5012733;28;20524;-73
2022/06/10 04:06:29;;;;;;;7.13;5.70;;;;;;;13.63;87.67;101124.00;5013014;28;20069;-73
2022/06/10 04:08:55;;;;;;;8.52;6.32;;;;;;;13.69;86.88;101135.41;5012505;28;20061;-73
2022/06/10 04:11:20;;;;;;;7.28;5.47;;;;;;;13.75;86.85;101138.03;5006380;28;20117;-73
2022/06/10 04:13:46;;;;;;;5.93;4.80;;;;;;;13.82;86.17;101142.38;5013285;28;20074;-72
2022/06/10 04:16:12;;;;;;;6.63;5.07;;;;;;;13.93;85.72;101136.06;5012273;28;20076;-74
2022/06/10 04:18:37;;;;;;;7.57;5.60;;;;;;;14.02;85.00;101143.97;5012827;28;20034;-73
2022/06/10 04:21:04;;;;;;;7.97;6.50;;;;;;;14.06;84.65;101144.78;5012059;28;20480;-73
2022/06/10 04:23:29;;;;;;;25.40;19.52;;;;;;;14.13;84.91;101146.50;5012868;28;20044;-73
2022/06/10 04:25:54;;;;;;;10.50;8.07;;;;;;;14.21;84.28;101147.28;5010346;28;20045;-73
2022/06/10 04:28:20;;;;;;;6.40;5.20;;;;;;;14.28;83.96;101156.94;5011015;28;20040;-73
2022/06/10 04:30:48;;;;;;;7.90;5.60;;;;;;;14.32;83.54;101152.47;5020729;28;20500;-73
2022/06/10 04:33:14;;;;;;;7.22;4.60;;;;;;;14.36;82.94;101155.06;5012103;28;20033;-73
2022/06/10 04:35:41;;;;;;;7.05;4.15;;;;;;;14.44;83.30;101154.97;5012673;28;20505;-73
2022/06/10 04:38:07;;;;;;;4.97;3.92;;;;;;;14.54;82.99;101163.72;5011208;28;20036;-73
2022/06/10 04:40:36;;;;;;;5.28;4.43;;;;;;;14.63;82.32;101153.00;5012536;28;20052;-73
2022/06/10 04:43:02;;;;;;;7.30;4.38;;;;;;;14.68;81.67;101162.66;5011187;28;20511;-73
2022/06/10 04:45:31;;;;;;;6.75;4.40;;;;;;;14.71;80.60;101160.88;5012035;28;20038;-73
2022/06/10 04:47:58;;;;;;;6.97;4.57;;;;;;;14.74;81.48;101159.03;5011782;28;20037;-73
2022/06/10 04:50:25;;;;;;;7.45;5.15;;;;;;;14.81;81.16;101168.69;5006357;28;20088;-73
2022/06/10 04:52:51;;;;;;;6.13;4.60;;;;;;;14.88;80.45;101178.34;5010813;28;20100;-73
2022/06/10 04:55:17;;;;;;;5.97;4.15;;;;;;;14.90;80.14;101168.56;5010853;28;20103;-72
2022/06/10 04:57:43;;;;;;;7.47;4.30;;;;;;;15.01;80.03;101180.81;5012132;28;20041;-73
2022/06/10 05:00:15;;;;;;;8.60;5.80;;;;;;;15.10;79.61;101181.59;5011526;28;20038;-73
2022/06/10 05:02:41;;;;;;;9.30;5.13;;;;;;;15.15;78.99;101184.19;5009273;28;20033;-73
2022/06/10 05:05:07;;;;;;;9.05;4.15;;;;;;;15.20;78.78;101179.69;5011259;28;20026;-73
2022/06/10 05:07:33;;;;;;;6.70;4.78;;;;;;;15.33;79.04;101186.56;5011056;28;20049;-73
2022/06/10 05:09:58;;;;;;;5.10;3.63;;;;;;;15.42;78.10;101188.19;5010771;28;20045;-73
2022/06/10 05:12:24;;;;;;;6.13;3.50;;;;;;;15.48;77.62;101201.41;5010791;28;20042;-73
2022/06/10 05:14:49;;;;;;;6.03;3.03;;;;;;;15.52;76.86;101208.44;5011063;28;20040;-73
2022/06/10 05:17:15;;;;;;;4.57;3.00;;;;;;;15.68;76.69;101202.88;5011232;28;20113;-73
2022/06/10 05:19:40;;;;;;;7.20;3.25;;;;;;;15.76;75.72;101199.19;5011806;28;20037;-73
2022/06/10 05:22:05;;;;;;;7.78;3.15;;;;;;;15.88;75.10;101198.13;5011080;28;20457;-73
2022/06/10 05:24:31;;;;;;;5.47;3.67;;;;;;;15.95;74.72;101202.41;5009136;28;20037;-73
2022/06/10 05:26:56;;;;;;;6.78;3.58;;;;;;;16.04;73.94;101200.50;5011893;28;20409;-73
2022/06/10 05:29:21;;;;;;;4.93;2.80;;;;;;;16.11;73.07;101200.38;5009937;28;20516;-73
2022/06/10 05:31:47;;;;;;;7.85;3.58;;;;;;;16.19;72.20;101209.09;5011155;28;20548;-73
2022/06/10 05:36:56;;;;;;;5.88;2.30;;;;;;;16.38;71.83;101214.06;5011425;28;20041;-73
2022/06/10 05:39:21;;;;;;;7.93;2.55;;;;;;;16.39;68.42;101218.47;5011663;28;20455;-73
2022/06/10 05:42:05;;;;;;;5.03;1.55;;;;;;;16.47;68.72;101213.88;5010871;28;20042;-73
2022/06/10 05:44:35;;;;;;;4.32;1.80;;;;;;;16.58;67.51;101222.56;5007973;28;20488;-73
2022/06/10 05:47:01;;;;;;;5.63;2.38;;;;;;;16.65;68.32;101226.84;5011309;28;20038;-73
2022/06/10 05:49:28;;;;;;;6.68;1.70;;;;;;;16.75;66.55;101221.34;5011157;28;20454;-73
2022/06/10 05:51:54;;;;;;;5.20;1.60;;;;;;;16.86;66.00;101220.22;5010649;28;20038;-73
2022/06/10 05:54:20;;;;;;;6.07;1.40;;;;;;;16.90;64.60;101226.38;5011356;28;20029;-73
2022/06/10 05:56:45;;;;;;;4.53;1.35;;;;;;;16.95;64.09;101234.25;5011442;28;20072;-73
2022/06/10 05:59:11;;;;;;;6.78;1.55;;;;;;;16.95;63.95;101236.94;5011321;28;20040;-72
2022/06/10 06:01:37;;;;;;;3.88;1.20;;;;;;;16.98;63.59;101243.09;5010404;28;20037;-73
2022/06/10 06:04:03;;;;;;;4.85;1.98;;;;;;;17.03;63.35;101235.88;5011234;28;20432;-73
2022/06/10 06:06:28;;;;;;;4.07;1.40;;;;;;;17.12;63.18;101241.91;5010971;28;20034;-73
2022/06/10 06:08:53;;;;;;;6.43;1.45;;;;;;;17.20;62.67;101239.94;5009053;28;20473;-73
2022/06/10 06:11:19;;;;;;;4.15;1.27;;;;;;;17.27;63.32;101239.78;5010699;28;20656;-73
2022/06/10 06:13:44;;;;;;;3.17;1.23;;;;;;;17.35;62.20;101244.06;5011090;28;20038;-73
2022/06/10 06:16:15;;;;;;;5.75;1.60;;;;;;;17.43;61.32;101236.75;5010964;28;20041;-73
2022/06/10 06:18:41;;;;;;;2.75;0.88;;;;;;;17.43;61.83;101242.97;5011231;28;20547;-72
2022/06/10 06:21:06;;;;;;;4.25;1.75;;;;;;;17.51;63.02;101248.13;5010303;28;20041;-73
2022/06/10 06:23:32;;;;;;;2.58;0.93;;;;;;;17.63;61.44;101241.59;5003488;28;20081;-73
2022/06/10 06:25:58;;;;;;;5.15;1.60;;;;;;;17.76;62.28;101235.06;5010971;28;20085;-73
2022/06/10 06:28:23;;;;;;;6.32;1.73;;;;;;;17.86;60.98;101233.94;5011107;28;20085;-73
2022/06/10 06:30:49;;;;;;;2.50;1.25;;;;;;;17.91;61.49;101231.16;5011038;28;20040;-73
2022/06/10 06:33:14;;;;;;;3.83;1.00;;;;;;;18.02;59.75;101229.09;5010561;28;20546;-73
2022/06/10 06:35:45;;;;;;;4.00;1.60;;;;;;;18.04;60.65;101231.75;5010021;28;20145;-73
2022/06/10 06:38:11;;;;;;;5.18;1.20;;;;;;;18.14;59.82;101235.94;5006940;28;20092;-73
2022/06/10 06:40:37;;;;;;;3.70;1.35;;;;;;;18.14;60.28;101236.78;5010936;28;20038;-73
2022/06/10 06:43:02;;;;;;;5.60;1.30;;;;;;;18.26;61.27;101232.94;5009082;28;20122;-73
2022/06/10 06:45:28;;;;;;;3.97;1.23;;;;;;;18.27;60.09;101234.69;5009745;28;20041;-73
2022/06/10 06:47:53;;;;;;;5.22;1.63;;;;;;;18.35;60.06;101242.50;5024480;23;20034;-76
2022/06/10 06:50:24;;;;;;;7.63;1.65;;;;;;;18.40;59.38;101244.13;5006838;28;20038;-77
2022/06/10 06:52:50;;;;;;;6.60;1.50;;;;;;;18.38;59.32;101245.94;5009329;28;20032;-76
2022/06/10 06:55:16;;;;;;;7.10;1.60;;;;;;;18.45;59.20;101249.34;5025174;28;20034;-77
2022/06/10 06:57:44;;;;;;;6.35;1.63;;;;;;;18.49;58.89;101242.09;5009806;28;20566;-77
2022/06/10 07:00:14;;;;;;;5.43;1.55;;;;;;;18.52;58.11;101250.03;5009520;28;20092;-75
2022/06/10 07:02:39;;;;;;;5.88;1.48;;;;;;;18.58;58.53;101244.53;5009827;28;20065;-75
2022/06/10 07:05:05;;;;;;;8.55;1.60;;;;;;;18.67;57.75;101252.28;5009066;28;20052;-75
2022/06/10 07:07:31;;;;;;;7.55;1.27;;;;;;;18.75;57.38;101255.66;5010521;28;20062;-75
2022/06/10 07:09:56;;;;;;;6.43;1.65;;;;;;;18.80;56.92;101251.03;5009632;28;20072;-75
2022/06/10 07:12:22;;;;;;;4.97;1.38;;;;;;;18.87;56.61;101267.81;5010563;28;20045;-75
2022/06/10 07:14:49;;;;;;;5.60;1.38;;;;;;;18.93;56.78;101264.06;5013007;28;20038;-75
2022/06/10 07:17:17;;;;;;;4.47;1.30;;;;;;;19.01;56.33;101259.38;5012985;28;20034;-75
2022/06/10 07:19:43;;;;;;;5.22;1.60;;;;;;;19.07;55.62;101263.66;5014270;28;20037;-75
2022/06/10 07:22:08;;;;;;;6.22;1.92;;;;;;;19.09;55.00;101267.16;5011622;28;20113;-75
2022/06/10 07:24:34;;;;;;;6.47;1.40;;;;;;;19.05;54.07;101251.22;5012857;28;20492;-75
2022/06/10 07:27:04;;;;;;;4.35;1.30;;;;;;;19.00;54.35;101269.19;5013118;28;20029;-74
2022/06/10 07:29:30;;;;;;;4.43;1.30;;;;;;;19.07;54.98;101269.88;5013846;28;20033;-75
2022/06/10 07:31:55;;;;;;;5.53;1.45;;;;;;;19.15;54.05;101251.81;5012341;28;20042;-75
2022/06/10 07:34:20;;;;;;;7.05;1.50;;;;;;;19.24;51.79;101259.56;5012845;28;20129;-75
2022/06/10 07:36:46;;;;;;;8.88;2.17;;;;;;;19.24;52.71;101256.00;5013790;28;20112;-74
2022/06/10 07:39:12;;;;;;;6.70;1.45;;;;;;;19.33;52.94;101257.50;5012473;28;20033;-75
2022/06/10 07:44:21;;;;;;;5.95;1.23;;;;;;;19.58;54.02;101265.66;5012551;28;20512;-75
2022/06/10 07:46:48;;;;;;;6.35;1.52;;;;;;;19.82;53.27;101253.31;5010176;28;20121;-74
2022/06/10 07:49:14;;;;;;;4.35;1.42;;;;;;;19.80;51.55;101260.50;5012305;28;20033;-76
2022/06/10 07:51:39;;;;;;;6.10;1.25;;;;;;;19.74;50.65;101255.38;5013595;28;20038;-75
2022/06/10 07:54:05;;;;;;;5.53;1.20;;;;;;;19.69;51.11;101267.09;5013946;28;20037;-76
2022/06/10 07:56:30;;;;;;;5.35;1.42;;;;;;;19.73;51.51;101258.94;5014053;28;20118;-75
2022/06/10 07:58:58;;;;;;;4.82;1.48;;;;;;;19.79;50.09;101259.63;5013483;28;20042;-75
2022/06/10 08:01:24;;;;;;;5.07;1.27;;;;;;;19.81;49.68;101259.59;5009479;28;20053;-75
2022/06/10 08:03:50;;;;;;;6.15;1.45;;;;;;;19.77;49.90;101260.63;5012282;28;20038;-75
2022/06/10 08:06:17;;;;;;;11.07;1.67;;;;;;;19.85;49.87;101258.56;5012259;28;20519;-75
2022/06/10 08:08:42;;;;;;;6.63;1.83;;;;;;;19.85;50.46;101253.19;5010541;28;20046;-75
2022/06/10 08:11:08;;;;;;;6.07;1.27;;;;;;;19.89;50.26;101265.59;5012676;28;20033;-75
2022/06/10 08:13:33;;;;;;;7.38;1.60;;;;;;;19.98;50.02;101259.03;5010754;28;20049;-75
2022/06/10 08:15:59;;;;;;;6.80;1.48;;;;;;;20.05;50.75;101245.38;5013068;28;20033;-75
2022/06/10 08:18:24;;;;;;;5.47;1.63;;;;;;;20.09;48.99;101251.50;5012338;28;20037;-75
2022/06/10 08:23:34;;;;;;;6.03;1.63;;;;;;;20.15;50.47;101245.94;5010348;28;20447;-75
2022/06/10 08:26:03;;;;;;;4.93;1.52;;;;;;;20.31;49.68;101257.88;5012920;28;20030;-75
2022/06/10 08:28:29;;;;;;;6.18;1.80;;;;;;;20.36;49.33;101255.03;5012908;28;20034;-75
2022/06/10 08:30:55;;;;;;;5.13;1.50;;;;;;;20.56;50.22;101254.34;5012593;28;20412;-75
2022/06/10 08:33:21;;;;;;;5.45;1.70;;;;;;;20.70;49.06;101248.50;5019774;28;20042;-75
2022/06/10 08:35:46;;;;;;;8.02;1.73;;;;;;;20.84;49.03;101262.25;5009137;28;20037;-75
2022/06/10 08:38:14;;;;;;;4.65;1.63;;;;;;;20.78;48.82;101246.41;5013276;28;20044;-74
2022/06/10 08:40:52;;;;;;;7.13;1.80;;;;;;;20.95;49.91;101249.31;5013019;28;20164;-75
2022/06/10 08:43:33;;;;;;;4.60;1.30;;;;;;;20.97;46.93;101247.44;5009597;28;20504;-75
2022/06/10 08:46:10;;;;;;;4.75;1.17;;;;;;;20.96;47.80;101248.38;5012035;28;20045;-74
2022/06/10 08:48:56;;;;;;;4.55;1.20;;;;;;;21.16;48.24;101244.91;5010239;28;20053;-74
2022/06/10 08:51:32;;;;;;;6.90;1.70;;;;;;;21.30;47.57;101251.56;5008671;28;20034;-75
2022/06/10 08:54:08;;;;;;;6.35;1.25;;;;;;;21.33;47.09;101254.16;5011446;28;20033;-75
2022/06/10 08:56:40;;;;;;;6.65;1.40;;;;;;;21.38;44.86;101253.06;5011765;28;20447;-75
2022/06/10 08:59:08;;;;;;;;;;;;;;;21.34;47.24;101247.81;5011911;28;20038;-75
2022/06/10 09:02:04;;;;;;;3.97;1.48;;;;;;;21.60;47.52;101253.06;5011568;28;19964;-75
2022/06/10 09:04:52;;;;;;;3.53;1.13;;;;;;;21.63;44.96;101249.38;5001844;28;20121;-75
2022/06/10 09:07:27;;;;;;;7.28;1.10;;;;;;;21.86;45.53;101248.44;5003846;28;20073;-75
2022/06/10 09:09:54;;;;;;;7.30;1.42;;;;;;;22.06;43.84;101243.09;5010599;28;20081;-75
2022/06/10 09:12:35;;;;;;;7.15;1.63;;;;;;;22.18;44.09;101243.50;5012149;28;20095;-75
2022/06/10 09:15:03;;;;;;;5.80;1.93;;;;;;;22.03;43.99;101240.53;5011141;28;20092;-75
2022/06/10 09:17:43;;;;;;;5.45;1.33;;;;;;;21.97;44.83;101240.78;5012023;28;20034;-75
2022/06/10 09:20:23;;;;;;;4.82;1.50;;;;;;;21.88;44.93;101244.75;5010382;28;20046;-75
2022/06/10 09:22:55;;;;;;;6.78;1.50;;;;;;;21.96;45.36;101248.94;5011413;28;20037;-75
2022/06/10 09:25:32;;;;;;;5.57;1.30;;;;;;;21.98;43.99;101247.03;5012267;28;20046;-75
2022/06/10 09:28:00;;;;;;;6.43;1.40;;;;;;;22.18;43.51;101244.38;5007212;28;20382;-75
2022/06/10 09:30:56;;;;;;;5.78;1.45;;;;;;;22.36;41.40;101253.47;5012009;28;20038;-75
2022/06/10 09:33:42;;;;;;;5.40;1.80;;;;;;;22.73;42.49;101244.63;5003710;28;20054;-75
2022/06/10 09:36:22;;;;;;;4.50;1.52;;;;;;;23.00;41.48;101252.41;5009408;28;20073;-75
2022/06/10 09:38:50;;;;;;;5.95;1.30;;;;;;;23.17;41.30;101255.19;5008551;28;20065;-75
2022/06/10 09:41:35;;;;;;;5.72;1.00;;;;;;;23.16;40.10;101249.88;5010323;28;20382;-75
2022/06/10 09:44:35;;;;;;;5.07;1.20;;;;;;;23.14;41.51;101252.66;5022513;28;20031;-75
2022/06/10 09:47:37;;;;;;;7.72;1.40;;;;;;;22.62;41.80;101262.22;5007183;28;20496;-75
2022/06/10 09:50:06;;;;;;;5.45;1.27;;;;;;;22.68;41.82;101254.72;5008657;28;20042;-75
2022/06/10 09:52:47;;;;;;;4.10;1.15;;;;;;;22.78;40.86;101270.47;5011158;28;20124;-75
2022/06/10 09:55:21;;;;;;;7.15;1.95;;;;;;;22.82;40.88;101261.31;5005739;28;20125;-75
2022/06/10 09:58:05;;;;;;;4.63;1.20;;;;;;;23.06;40.27;101254.84;5010483;28;20041;-75
2022/06/10 10:00:43;;;;;;;3.65;1.20;;;;;;;23.41;39.43;101246.88;5009327;28;20073;-75
2022/06/10 10:03:37;;;;;;;4.85;1.10;;;;;;;23.56;39.20;101243.44;5010650;28;20025;-75
2022/06/10 10:06:28;;;;;;;5.65;1.23;;;;;;;23.72;39.55;101234.66;5006380;28;20038;-75
2022/06/10 10:09:10;;;;;;;6.67;1.27;;;;;;;23.45;40.99;101245.81;5010924;28;20555;-75
2022/06/10 10:11:46;;;;;;;4.82;1.30;;;;;;;23.50;40.57;101242.88;5011007;28;20042;-74
2022/06/10 10:14:47;;;;;;;6.60;1.30;;;;;;;23.17;40.81;101232.78;5010325;28;20038;-73
2022/06/10 10:17:35;;;;;;;5.15;1.10;;;;;;;23.31;40.69;101246.44;4931016;29;20569;-75
2022/06/10 10:20:11;;;;;;;3.75;1.55;;;;;;;23.47;41.09;101233.13;5004100;28;20064;-74
2022/06/10 10:23:13;;;;;;;5.95;0.98;;;;;;;23.44;40.63;101240.47;5005684;28;20501;-75
2022/06/10 10:25:41;;;;;;;3.60;1.35;;;;;;;23.33;42.28;101222.16;4960536;28;20088;-75
2022/06/10 10:28:16;;;;;;;5.57;2.40;;;;;;;23.40;41.14;101223.59;5011122;28;20505;-75
2022/06/10 10:30:47;;;;;;;8.77;1.60;;;;;;;23.53;41.16;101227.44;5011285;28;20037;-75
2022/06/10 10:33:15;;;;;;;8.88;1.80;;;;;;;23.73;41.63;101223.78;5010502;28;20042;-75
2022/06/10 10:35:54;;;;;;;6.15;1.52;;;;;;;24.09;41.32;101219.28;5007105;28;20780;-74
2022/06/10 10:38:42;;;;;;;4.63;1.10;;;;;;;24.35;39.77;101220.63;5009632;28;20149;-75
2022/06/10 10:41:29;;;;;;;6.30;1.60;;;;;;;24.26;40.36;101221.97;5008871;28;20104;-76
2022/06/10 10:44:05;;;;;;;3.78;1.48;;;;;;;24.09;40.59;101225.56;5000293;28;20117;-75
2022/06/10 10:46:40;;;;;;;3.78;1.10;;;;;;;24.21;40.50;101224.94;5006807;28;20125;-75
2022/06/10 10:49:36;;;;;;;6.20;1.92;;;;;;;24.38;41.17;101221.34;5010638;28;20064;-75
2022/06/10 10:52:16;;;;;;;3.55;1.17;;;;;;;24.88;41.96;101215.06;5013361;28;20095;-75
2022/06/10 10:54:44;;;;;;;5.60;1.38;;;;;;;24.73;37.62;101218.59;5012706;28;20378;-75
2022/06/10 10:57:21;;;;;;;3.13;1.10;;;;;;;24.98;38.81;101217.25;5014260;28;20041;-75
2022/06/10 10:59:55;;;;;;;4.43;1.80;;;;;;;24.97;39.15;101224.50;5004146;28;20507;-75
2022/06/10 11:02:26;;;;;;;3.95;1.10;;;;;;;25.03;38.92;101221.44;5013117;28;20161;-75
2022/06/10 11:04:51;;;;;;;5.97;1.90;;;;;;;25.32;38.34;101214.44;5012125;28;20028;-74
2022/06/10 11:07:21;;;;;;;2.78;1.27;;;;;;;25.41;37.27;101217.56;5014551;28;20408;-74
2022/06/10 11:10:05;;;;;;;6.55;1.67;;;;;;;25.49;37.81;101215.28;5014378;28;20038;-75
2022/06/10 11:12:32;;;;;;;6.53;1.80;;;;;;;25.42;38.05;101213.91;5013012;28;20037;-75
2022/06/10 11:15:03;;;;;;;4.50;1.20;;;;;;;25.70;36.91;101203.25;5011179;28;20042;-75
2022/06/10 11:17:30;;;;;;;5.25;1.20;;;;;;;25.31;35.42;101212.69;5014219;28;20041;-75
2022/06/10 11:20:01;;;;;;;4.75;1.10;;;;;;;25.30;36.60;101213.63;5013930;28;20477;-75
2022/06/10 11:22:31;;;;;;;2.50;0.90;;;;;;;25.64;35.58;101203.59;5012937;28;20037;-75
2022/06/10 11:25:02;;;;;;;5.47;1.08;;;;;;;25.83;35.30;101210.59;5013580;28;20037;-75
2022/06/10 11:27:35;;;;;;;3.60;1.20;;;;;;;25.87;36.49;101204.97;5010903;28;20064;-75
2022/06/10 11:30:23;;;;;;;4.65;1.23;;;;;;;25.51;36.48;101208.81;5014149;28;20404;-75
2022/06/10 11:32:48;;;;;;;6.18;1.30;;;;;;;24.83;36.07;101197.38;5011401;28;20058;-75
2022/06/10 11:35:25;;;;;;;7.18;1.30;;;;;;;24.65;37.40;101205.53;5012331;28;20077;-74
2022/06/10 11:37:58;;;;;;;8.05;1.38;;;;;;;24.90;36.69;101204.19;5012661;28;20065;-75
2022/06/10 11:40:36;;;;;;;3.95;1.27;;;;;;;25.09;35.09;101195.91;5011003;28;20030;-75
2022/06/10 11:43:15;;;;;;;3.90;1.45;;;;;;;25.44;35.65;101193.06;5010415;28;20041;-74
2022/06/10 11:46:04;;;;;;;4.05;1.42;;;;;;;25.93;35.61;101193.78;5014009;28;20026;-75
2022/06/10 11:48:46;;;;;;;5.47;1.17;;;;;;;26.39;33.96;101196.38;5013614;28;20124;-75
2022/06/10 11:51:21;;;;;;;2.40;1.00;;;;;;;26.21;33.41;101187.56;5009266;28;20099;-75
2022/06/10 11:54:04;;;;;;;3.40;0.80;;;;;;;26.00;33.58;101188.88;5012140;28;20046;-74
2022/06/10 11:59:49;;;;;;;5.85;1.40;;;;;;;26.00;34.48;101181.63;5009958;28;20496;-75
2022/06/10 12:02:53;;;;;;;6.05;1.48;;;;;;;26.21;34.15;101192.97;5009646;28;20400;-75
2022/06/10 12:05:26;;;;;;;4.38;1.13;;;;;;;26.11;34.48;101180.09;5011831;28;20416;-74